sensor_id;sensor_type;location;lat;lon;timestamp;pressure;altitude;pressure_sealevel;temperature;humidity
70103;BME280;57470;50.034;15.256;2024-02-04T00:01:40;99758.94;;;9.44;91.92
70103;BME280;57470;50.034;15.256;2024-02-04T00:04:05;99763.06;;;9.34;91.94
70103;BME280;57470;50.034;15.256;2024-02-04T00:06:31;99766.31;;;9.39;91.97
70103;BME280;57470;50.034;15.256;2024-02-04T00:08:56;99750.19;;;9.42;91.70
70103;BME280;57470;50.034;15.256;2024-02-04T00:11:22;99755.09;;;9.34;92.05
70103;BME280;57470;50.034;15.256;2024-02-04T00:13:47;99749.88;;;9.32;92.28
70103;BME280;57470;50.034;15.256;2024-02-04T00:16:13;99758.16;;;9.42;92.31
70103;BME280;57470;50.034;15.256;2024-02-04T00:18:38;99745.19;;;9.52;92.02
70103;BME280;57470;50.034;15.256;2024-02-04T00:21:04;99737.38;;;9.34;91.82
70103;BME280;57470;50.034;15.256;2024-02-04T00:23:29;99741.38;;;9.41;91.83
70103;BME280;57470;50.034;15.256;2024-02-04T00:25:55;99744.78;;;9.29;92.24
70103;BME280;57470;50.034;15.256;2024-02-04T00:28:20;99755.41;;;9.29;92.43
70103;BME280;57470;50.034;15.256;2024-02-04T00:30:46;99754.06;;;9.36;92.73
70103;BME280;57470;50.034;15.256;2024-02-04T00:33:11;99757.59;;;9.37;93.94
70103;BME280;57470;50.034;15.256;2024-02-04T00:35:37;99758.59;;;9.20;95.21
70103;BME280;57470;50.034;15.256;2024-02-04T00:38:02;99751.66;;;9.18;95.98
70103;BME280;57470;50.034;15.256;2024-02-04T00:40:28;99743.00;;;9.14;96.24
70103;BME280;57470;50.034;15.256;2024-02-04T00:42:53;99758.59;;;9.20;96.63
70103;BME280;57470;50.034;15.256;2024-02-04T00:45:19;99753.53;;;9.16;96.60
70103;BME280;57470;50.034;15.256;2024-02-04T00:47:44;99752.44;;;9.04;97.37
70103;BME280;57470;50.034;15.256;2024-02-04T00:50:10;99761.91;;;9.24;96.99
70103;BME280;57470;50.034;15.256;2024-02-04T00:52:35;99744.38;;;9.21;96.87
70103;BME280;57470;50.034;15.256;2024-02-04T00:55:00;99742.13;;;9.14;97.17
70103;BME280;57470;50.034;15.256;2024-02-04T00:57:26;99750.34;;;9.25;96.24
70103;BME280;57470;50.034;15.256;2024-02-04T00:59:53;99741.19;;;9.15;96.67
70103;BME280;57470;50.034;15.256;2024-02-04T01:02:18;99740.72;;;9.08;96.69
70103;BME280;57470;50.034;15.256;2024-02-04T01:04:43;99744.88;;;9.28;96.15
70103;BME280;57470;50.034;15.256;2024-02-04T01:07:09;99753.81;;;9.11;96.34
70103;BME280;57470;50.034;15.256;2024-02-04T01:09:34;99752.66;;;9.15;96.46
70103;BME280;57470;50.034;15.256;2024-02-04T01:12:00;99735.25;;;9.11;96.74
70103;BME280;57470;50.034;15.256;2024-02-04T01:14:25;99734.94;;;9.16;96.27
70103;BME280;57470;50.034;15.256;2024-02-04T01:16:50;99735.72;;;9.18;96.76
70103;BME280;57470;50.034;15.256;2024-02-04T01:19:16;99746.34;;;9.18;96.78
70103;BME280;57470;50.034;15.256;2024-02-04T01:21:41;99742.13;;;9.14;96.41
70103;BME280;57470;50.034;15.256;2024-02-04T01:24:07;99726.81;;;9.19;96.03
70103;BME280;57470;50.034;15.256;2024-02-04T01:26:32;99732.94;;;9.35;95.80
70103;BME280;57470;50.034;15.256;2024-02-04T01:28:58;99736.91;;;9.28;95.99
70103;BME280;57470;50.034;15.256;2024-02-04T01:31:23;99736.91;;;9.28;95.66
70103;BME280;57470;50.034;15.256;2024-02-04T01:33:48;99740.75;;;9.22;95.73
70103;BME280;57470;50.034;15.256;2024-02-04T01:36:14;99738.00;;;9.24;95.54
70103;BME280;57470;50.034;15.256;2024-02-04T01:38:39;99730.28;;;9.35;95.39
70103;BME280;57470;50.034;15.256;2024-02-04T01:41:04;99717.00;;;9.35;95.03
70103;BME280;57470;50.034;15.256;2024-02-04T01:43:30;99722.31;;;9.35;94.51
70103;BME280;57470;50.034;15.256;2024-02-04T01:45:56;99709.81;;;9.37;94.67
70103;BME280;57470;50.034;15.256;2024-02-04T01:48:22;99708.47;;;9.30;94.79
70103;BME280;57470;50.034;15.256;2024-02-04T01:50:50;99707.38;;;9.48;94.16
70103;BME280;57470;50.034;15.256;2024-02-04T01:53:21;99701.09;;;9.49;93.51
70103;BME280;57470;50.034;15.256;2024-02-04T01:55:47;99705.28;;;9.53;93.37
70103;BME280;57470;50.034;15.256;2024-02-04T01:58:15;99702.31;;;9.58;93.07
70103;BME280;57470;50.034;15.256;2024-02-04T02:00:40;99702.44;;;9.56;93.08
70103;BME280;57470;50.034;15.256;2024-02-04T02:03:06;99704.63;;;9.64;93.30
70103;BME280;57470;50.034;15.256;2024-02-04T02:05:34;99702.72;;;9.52;93.24
70103;BME280;57470;50.034;15.256;2024-02-04T02:07:59;99699.50;;;9.47;93.21
70103;BME280;57470;50.034;15.256;2024-02-04T02:10:25;99707.84;;;9.55;93.17
70103;BME280;57470;50.034;15.256;2024-02-04T02:12:56;99704.91;;;9.59;92.80
70103;BME280;57470;50.034;15.256;2024-02-04T02:15:27;99724.44;;;9.58;92.86
70103;BME280;57470;50.034;15.256;2024-02-04T02:18:04;99716.75;;;9.54;92.87
70103;BME280;57470;50.034;15.256;2024-02-04T02:23:22;99703.94;;;9.46;93.75
70103;BME280;57470;50.034;15.256;2024-02-04T02:25:56;99707.16;;;9.51;93.29
70103;BME280;57470;50.034;15.256;2024-02-04T02:28:24;99700.16;;;9.50;93.58
70103;BME280;57470;50.034;15.256;2024-02-04T02:30:51;99692.94;;;9.52;93.53
70103;BME280;57470;50.034;15.256;2024-02-04T02:33:18;99701.38;;;9.59;93.34
70103;BME280;57470;50.034;15.256;2024-02-04T02:35:48;99684.81;;;9.55;93.59
70103;BME280;57470;50.034;15.256;2024-02-04T02:38:25;99677.59;;;9.57;93.71
70103;BME280;57470;50.034;15.256;2024-02-04T02:40:58;99685.75;;;9.54;94.03
70103;BME280;57470;50.034;15.256;2024-02-04T02:43:25;99682.88;;;9.43;94.22
70103;BME280;57470;50.034;15.256;2024-02-04T02:45:54;99687.50;;;9.39;94.92
70103;BME280;57470;50.034;15.256;2024-02-04T02:48:22;99689.22;;;9.40;95.30
70103;BME280;57470;50.034;15.256;2024-02-04T02:50:48;99689.72;;;9.47;95.69
70103;BME280;57470;50.034;15.256;2024-02-04T02:53:15;99682.09;;;9.27;96.98
70103;BME280;57470;50.034;15.256;2024-02-04T02:55:46;99672.59;;;9.23;98.00
70103;BME280;57470;50.034;15.256;2024-02-04T02:58:14;99687.03;;;9.33;98.57
70103;BME280;57470;50.034;15.256;2024-02-04T03:00:41;99674.31;;;9.24;98.87
70103;BME280;57470;50.034;15.256;2024-02-04T03:03:08;99678.75;;;9.23;99.29
70103;BME280;57470;50.034;15.256;2024-02-04T03:05:34;99675.63;;;9.17;99.04
70103;BME280;57470;50.034;15.256;2024-02-04T03:08:01;99670.34;;;9.31;98.81
70103;BME280;57470;50.034;15.256;2024-02-04T03:10:29;99668.06;;;9.25;98.42
70103;BME280;57470;50.034;15.256;2024-02-04T03:12:56;99652.81;;;9.28;98.16
70103;BME280;57470;50.034;15.256;2024-02-04T03:15:23;99654.31;;;9.32;97.93
70103;BME280;57470;50.034;15.256;2024-02-04T03:17:49;99656.34;;;9.29;97.48
70103;BME280;57470;50.034;15.256;2024-02-04T03:20:14;99665.88;;;9.31;97.24
70103;BME280;57470;50.034;15.256;2024-02-04T03:22:40;99663.34;;;9.30;96.89
70103;BME280;57470;50.034;15.256;2024-02-04T03:25:06;99660.31;;;9.36;96.74
70103;BME280;57470;50.034;15.256;2024-02-04T03:27:31;99664.59;;;9.38;96.58
70103;BME280;57470;50.034;15.256;2024-02-04T03:29:57;99675.09;;;9.40;96.15
70103;BME280;57470;50.034;15.256;2024-02-04T03:32:22;99674.91;;;9.29;96.07
70103;BME280;57470;50.034;15.256;2024-02-04T03:34:47;99668.38;;;9.49;95.35
70103;BME280;57470;50.034;15.256;2024-02-04T03:37:13;99660.41;;;9.34;95.23
70103;BME280;57470;50.034;15.256;2024-02-04T03:39:38;99658.78;;;9.32;94.58
70103;BME280;57470;50.034;15.256;2024-02-04T03:42:04;99667.91;;;9.42;94.42
70103;BME280;57470;50.034;15.256;2024-02-04T03:44:29;99676.16;;;9.52;93.87
70103;BME280;57470;50.034;15.256;2024-02-04T03:46:54;99659.94;;;9.42;93.53
70103;BME280;57470;50.034;15.256;2024-02-04T03:49:21;99669.81;;;9.54;93.26
70103;BME280;57470;50.034;15.256;2024-02-04T03:51:47;99677.94;;;9.37;93.75
70103;BME280;57470;50.034;15.256;2024-02-04T03:54:12;99679.19;;;9.46;93.79
70103;BME280;57470;50.034;15.256;2024-02-04T03:56:38;99683.56;;;9.47;93.51
70103;BME280;57470;50.034;15.256;2024-02-04T03:59:03;99678.41;;;9.29;93.78
70103;BME280;57470;50.034;15.256;2024-02-04T04:01:29;99684.69;;;9.43;93.39
70103;BME280;57470;50.034;15.256;2024-02-04T04:03:54;99676.25;;;9.36;92.92
70103;BME280;57470;50.034;15.256;2024-02-04T04:06:19;99688.66;;;9.35;93.04
70103;BME280;57470;50.034;15.256;2024-02-04T04:08:45;99672.06;;;9.32;93.40
70103;BME280;57470;50.034;15.256;2024-02-04T04:11:10;99669.00;;;9.24;93.96
70103;BME280;57470;50.034;15.256;2024-02-04T04:13:37;99659.78;;;9.15;94.30
70103;BME280;57470;50.034;15.256;2024-02-04T04:16:03;99663.38;;;9.14;94.00
70103;BME280;57470;50.034;15.256;2024-02-04T04:18:29;99675.22;;;9.09;94.18
70103;BME280;57470;50.034;15.256;2024-02-04T04:20:55;99689.44;;;9.08;94.52
70103;BME280;57470;50.034;15.256;2024-02-04T04:23:21;99691.00;;;9.26;93.63
70103;BME280;57470;50.034;15.256;2024-02-04T04:25:46;99704.66;;;9.34;93.49
70103;BME280;57470;50.034;15.256;2024-02-04T04:28:11;99696.88;;;9.31;93.10
70103;BME280;57470;50.034;15.256;2024-02-04T04:30:37;99690.44;;;9.21;93.13
70103;BME280;57470;50.034;15.256;2024-02-04T04:33:02;99689.66;;;9.19;93.08
70103;BME280;57470;50.034;15.256;2024-02-04T04:35:27;99689.84;;;9.16;93.13
70103;BME280;57470;50.034;15.256;2024-02-04T04:37:53;99678.38;;;9.15;93.14
70103;BME280;57470;50.034;15.256;2024-02-04T04:40:18;99669.50;;;9.30;92.36
70103;BME280;57470;50.034;15.256;2024-02-04T04:42:44;99684.47;;;9.31;92.96
70103;BME280;57470;50.034;15.256;2024-02-04T04:45:09;99651.75;;;9.31;92.92
70103;BME280;57470;50.034;15.256;2024-02-04T04:47:36;99659.34;;;9.23;93.21
70103;BME280;57470;50.034;15.256;2024-02-04T04:50:02;99654.53;;;9.29;92.48
70103;BME280;57470;50.034;15.256;2024-02-04T04:52:27;99644.91;;;9.13;93.01
70103;BME280;57470;50.034;15.256;2024-02-04T04:54:53;99666.19;;;9.41;92.74
70103;BME280;57470;50.034;15.256;2024-02-04T04:57:18;99665.50;;;9.23;93.47
70103;BME280;57470;50.034;15.256;2024-02-04T04:59:44;99658.59;;;9.35;93.62
70103;BME280;57470;50.034;15.256;2024-02-04T05:02:09;99663.22;;;9.31;94.32
70103;BME280;57470;50.034;15.256;2024-02-04T05:04:36;99654.00;;;9.09;95.34
70103;BME280;57470;50.034;15.256;2024-02-04T05:07:01;99659.53;;;9.20;96.04
70103;BME280;57470;50.034;15.256;2024-02-04T05:09:27;99644.34;;;9.08;97.22
70103;BME280;57470;50.034;15.256;2024-02-04T05:11:52;99635.41;;;8.94;97.43
70103;BME280;57470;50.034;15.256;2024-02-04T05:14:17;99637.31;;;9.07;97.65
70103;BME280;57470;50.034;15.256;2024-02-04T05:16:43;99637.16;;;9.10;97.10
70103;BME280;57470;50.034;15.256;2024-02-04T05:19:09;99631.38;;;9.17;96.70
70103;BME280;57470;50.034;15.256;2024-02-04T05:21:39;99640.03;;;9.21;96.20
70103;BME280;57470;50.034;15.256;2024-02-04T05:24:05;99630.44;;;9.18;96.19
70103;BME280;57470;50.034;15.256;2024-02-04T05:26:30;99631.53;;;9.14;96.18
70103;BME280;57470;50.034;15.256;2024-02-04T05:28:56;99635.69;;;9.04;96.09
70103;BME280;57470;50.034;15.256;2024-02-04T05:31:21;99634.28;;;8.98;96.15
70103;BME280;57470;50.034;15.256;2024-02-04T05:33:46;99635.19;;;8.83;96.15
70103;BME280;57470;50.034;15.256;2024-02-04T05:36:12;99618.28;;;8.70;96.43
70103;BME280;57470;50.034;15.256;2024-02-04T05:38:37;99634.97;;;8.86;95.83
70103;BME280;57470;50.034;15.256;2024-02-04T05:41:02;99645.59;;;8.86;95.59
70103;BME280;57470;50.034;15.256;2024-02-04T05:43:28;99646.38;;;8.88;95.58
70103;BME280;57470;50.034;15.256;2024-02-04T05:45:53;99643.31;;;8.80;95.16
70103;BME280;57470;50.034;15.256;2024-02-04T05:48:20;99652.69;;;8.86;94.87
70103;BME280;57470;50.034;15.256;2024-02-04T05:50:45;99657.34;;;8.82;95.34
70103;BME280;57470;50.034;15.256;2024-02-04T05:53:10;99652.63;;;8.87;94.81
70103;BME280;57470;50.034;15.256;2024-02-04T05:55:36;99649.47;;;8.81;94.81
70103;BME280;57470;50.034;15.256;2024-02-04T05:58:01;99650.91;;;8.86;94.63
70103;BME280;57470;50.034;15.256;2024-02-04T06:00:27;99657.91;;;8.87;94.62
70103;BME280;57470;50.034;15.256;2024-02-04T06:02:52;99636.91;;;8.84;94.68
70103;BME280;57470;50.034;15.256;2024-02-04T06:05:17;99659.81;;;8.85;94.80
70103;BME280;57470;50.034;15.256;2024-02-04T06:07:43;99655.03;;;9.06;94.02
70103;BME280;57470;50.034;15.256;2024-02-04T06:10:09;99648.78;;;9.07;94.01
70103;BME280;57470;50.034;15.256;2024-02-04T06:12:35;99645.06;;;8.95;94.00
70103;BME280;57470;50.034;15.256;2024-02-04T06:15:00;99645.16;;;8.94;93.86
70103;BME280;57470;50.034;15.256;2024-02-04T06:17:25;99635.13;;;8.99;94.00
70103;BME280;57470;50.034;15.256;2024-02-04T06:19:51;99629.56;;;9.03;93.53
70103;BME280;57470;50.034;15.256;2024-02-04T06:22:16;99635.81;;;9.02;93.51
70103;BME280;57470;50.034;15.256;2024-02-04T06:24:42;99639.88;;;9.08;92.97
70103;BME280;57470;50.034;15.256;2024-02-04T06:27:11;99636.84;;;9.14;93.28
70103;BME280;57470;50.034;15.256;2024-02-04T06:29:36;99643.09;;;9.13;93.23
70103;BME280;57470;50.034;15.256;2024-02-04T06:32:04;99639.25;;;9.19;92.90
70103;BME280;57470;50.034;15.256;2024-02-04T06:34:30;99633.59;;;9.39;92.31
70103;BME280;57470;50.034;15.256;2024-02-04T06:36:55;99631.38;;;9.31;92.28
70103;BME280;57470;50.034;15.256;2024-02-04T06:39:21;99643.34;;;9.38;92.34
70103;BME280;57470;50.034;15.256;2024-02-04T06:41:46;99650.00;;;9.46;92.46
70103;BME280;57470;50.034;15.256;2024-02-04T06:44:11;99648.97;;;9.48;92.86
70103;BME280;57470;50.034;15.256;2024-02-04T06:46:37;99638.03;;;9.53;92.96
70103;BME280;57470;50.034;15.256;2024-02-04T06:49:02;99636.41;;;9.50;92.97
70103;BME280;57470;50.034;15.256;2024-02-04T06:51:28;99640.59;;;9.54;92.43
70103;BME280;57470;50.034;15.256;2024-02-04T06:53:53;99644.47;;;9.49;92.64
70103;BME280;57470;50.034;15.256;2024-02-04T06:56:18;99656.25;;;9.59;92.83
70103;BME280;57470;50.034;15.256;2024-02-04T06:58:45;99655.09;;;9.77;92.46
70103;BME280;57470;50.034;15.256;2024-02-04T07:01:11;99649.72;;;9.64;92.63
70103;BME280;57470;50.034;15.256;2024-02-04T07:03:36;99656.34;;;9.71;92.29
70103;BME280;57470;50.034;15.256;2024-02-04T07:06:03;99658.44;;;9.81;92.58
70103;BME280;57470;50.034;15.256;2024-02-04T07:08:29;99646.28;;;9.76;92.20
70103;BME280;57470;50.034;15.256;2024-02-04T07:10:54;99648.22;;;9.74;92.07
70103;BME280;57470;50.034;15.256;2024-02-04T07:13:19;99660.13;;;9.67;91.80
70103;BME280;57470;50.034;15.256;2024-02-04T07:15:45;99655.31;;;9.74;91.43
70103;BME280;57470;50.034;15.256;2024-02-04T07:18:10;99659.94;;;9.70;91.49
70103;BME280;57470;50.034;15.256;2024-02-04T07:20:36;99658.81;;;9.89;91.88
70103;BME280;57470;50.034;15.256;2024-02-04T07:23:02;99643.44;;;9.79;91.34
70103;BME280;57470;50.034;15.256;2024-02-04T07:25:28;99626.19;;;9.72;91.72
70103;BME280;57470;50.034;15.256;2024-02-04T07:27:54;99626.75;;;9.63;92.18
70103;BME280;57470;50.034;15.256;2024-02-04T07:30:20;99629.22;;;9.66;92.60
70103;BME280;57470;50.034;15.256;2024-02-04T07:32:46;99635.66;;;9.76;92.41
70103;BME280;57470;50.034;15.256;2024-02-04T07:35:12;99643.16;;;9.70;92.74
70103;BME280;57470;50.034;15.256;2024-02-04T07:37:37;99636.22;;;9.67;93.86
70103;BME280;57470;50.034;15.256;2024-02-04T07:40:03;99646.13;;;9.65;94.87
70103;BME280;57470;50.034;15.256;2024-02-04T07:42:30;99646.47;;;9.45;96.27
70103;BME280;57470;50.034;15.256;2024-02-04T07:44:56;99642.50;;;9.38;97.05
70103;BME280;57470;50.034;15.256;2024-02-04T07:47:21;99646.69;;;9.56;97.14
70103;BME280;57470;50.034;15.256;2024-02-04T07:49:48;99647.72;;;9.54;96.86
70103;BME280;57470;50.034;15.256;2024-02-04T07:52:13;99637.56;;;9.46;97.21
70103;BME280;57470;50.034;15.256;2024-02-04T07:54:39;99631.31;;;9.47;97.34
70103;BME280;57470;50.034;15.256;2024-02-04T07:57:04;99637.94;;;9.68;96.76
70103;BME280;57470;50.034;15.256;2024-02-04T07:59:30;99632.84;;;9.65;96.77
70103;BME280;57470;50.034;15.256;2024-02-04T08:01:55;99634.72;;;9.77;96.35
70103;BME280;57470;50.034;15.256;2024-02-04T08:04:21;99630.00;;;9.54;96.03
70103;BME280;57470;50.034;15.256;2024-02-04T08:06:46;99625.25;;;9.73;95.70
70103;BME280;57470;50.034;15.256;2024-02-04T08:09:11;99625.34;;;9.72;94.48
70103;BME280;57470;50.034;15.256;2024-02-04T08:11:37;99604.16;;;9.85;94.11
70103;BME280;57470;50.034;15.256;2024-02-04T08:14:02;99607.84;;;9.96;93.73
70103;BME280;57470;50.034;15.256;2024-02-04T08:16:28;99606.72;;;10.00;93.96
70103;BME280;57470;50.034;15.256;2024-02-04T08:18:53;99607.81;;;10.10;93.46
70103;BME280;57470;50.034;15.256;2024-02-04T08:21:19;99598.38;;;10.33;93.33
70103;BME280;57470;50.034;15.256;2024-02-04T08:23:44;99600.94;;;10.35;91.84
70103;BME280;57470;50.034;15.256;2024-02-04T08:26:10;99612.59;;;10.59;91.05
70103;BME280;57470;50.034;15.256;2024-02-04T08:28:35;99617.47;;;10.79;91.01
70103;BME280;57470;50.034;15.256;2024-02-04T08:31:01;99616.03;;;10.74;90.22
70103;BME280;57470;50.034;15.256;2024-02-04T08:33:26;99616.41;;;10.82;90.23
70103;BME280;57470;50.034;15.256;2024-02-04T08:35:52;99612.84;;;10.69;90.51
70103;BME280;57470;50.034;15.256;2024-02-04T08:38:17;99618.72;;;10.74;90.23
70103;BME280;57470;50.034;15.256;2024-02-04T08:40:43;99607.63;;;10.67;90.46
70103;BME280;57470;50.034;15.256;2024-02-04T08:43:08;99603.06;;;10.69;90.51
70103;BME280;57470;50.034;15.256;2024-02-04T08:45:33;99609.16;;;10.84;90.60
70103;BME280;57470;50.034;15.256;2024-02-04T08:47:59;99599.94;;;11.02;89.60
70103;BME280;57470;50.034;15.256;2024-02-04T08:50:24;99587.59;;;11.26;88.55
70103;BME280;57470;50.034;15.256;2024-02-04T08:52:50;99590.34;;;11.12;88.14
70103;BME280;57470;50.034;15.256;2024-02-04T08:55:15;99595.47;;;11.15;88.20
70103;BME280;57470;50.034;15.256;2024-02-04T08:57:40;99602.28;;;11.19;87.36
70103;BME280;57470;50.034;15.256;2024-02-04T09:00:06;99600.47;;;11.20;88.58
70103;BME280;57470;50.034;15.256;2024-02-04T09:02:34;99597.31;;;10.63;90.50
70103;BME280;57470;50.034;15.256;2024-02-04T09:05:00;99603.72;;;10.73;91.23
70103;BME280;57470;50.034;15.256;2024-02-04T09:07:26;99600.09;;;10.74;91.64
70103;BME280;57470;50.034;15.256;2024-02-04T09:09:51;99584.75;;;10.65;91.37
70103;BME280;57470;50.034;15.256;2024-02-04T09:12:16;99587.88;;;10.84;92.48
70103;BME280;57470;50.034;15.256;2024-02-04T09:14:43;99598.09;;;10.77;92.16
70103;BME280;57470;50.034;15.256;2024-02-04T09:17:08;99597.78;;;10.95;92.09
70103;BME280;57470;50.034;15.256;2024-02-04T09:19:35;99583.09;;;10.89;91.08
70103;BME280;57470;50.034;15.256;2024-02-04T09:22:00;99580.97;;;10.81;90.35
70103;BME280;57470;50.034;15.256;2024-02-04T09:24:27;99605.81;;;11.07;89.68
70103;BME280;57470;50.034;15.256;2024-02-04T09:26:53;99594.50;;;11.04;89.49
70103;BME280;57470;50.034;15.256;2024-02-04T09:29:19;99592.59;;;11.06;89.01
70103;BME280;57470;50.034;15.256;2024-02-04T09:31:44;99593.22;;;10.97;89.10
70103;BME280;57470;50.034;15.256;2024-02-04T09:34:10;99575.97;;;11.02;88.99
70103;BME280;57470;50.034;15.256;2024-02-04T09:36:35;99570.56;;;11.04;88.70
70103;BME280;57470;50.034;15.256;2024-02-04T09:39:01;99573.34;;;11.15;89.33
70103;BME280;57470;50.034;15.256;2024-02-04T09:41:26;99576.69;;;10.91;88.67
70103;BME280;57470;50.034;15.256;2024-02-04T09:43:52;99587.59;;;11.14;88.36
70103;BME280;57470;50.034;15.256;2024-02-04T09:46:18;99581.84;;;11.20;88.17
70103;BME280;57470;50.034;15.256;2024-02-04T09:48:45;99576.44;;;11.09;87.92
70103;BME280;57470;50.034;15.256;2024-02-04T09:51:10;99588.97;;;11.07;87.80
70103;BME280;57470;50.034;15.256;2024-02-04T09:53:40;99596.97;;;11.07;88.19
70103;BME280;57470;50.034;15.256;2024-02-04T09:56:08;99597.28;;;11.15;87.03
70103;BME280;57470;50.034;15.256;2024-02-04T09:58:34;99583.88;;;10.91;88.33
70103;BME280;57470;50.034;15.256;2024-02-04T10:01:00;99585.25;;;11.09;88.83
70103;BME280;57470;50.034;15.256;2024-02-04T10:03:26;99598.91;;;11.17;88.59
70103;BME280;57470;50.034;15.256;2024-02-04T10:05:51;99603.34;;;11.29;88.19
70103;BME280;57470;50.034;15.256;2024-02-04T10:08:17;99599.53;;;11.34;88.04
70103;BME280;57470;50.034;15.256;2024-02-04T10:10:43;99594.72;;;11.39;87.54
70103;BME280;57470;50.034;15.256;2024-02-04T10:13:09;99576.53;;;11.33;86.80
70103;BME280;57470;50.034;15.256;2024-02-04T10:15:35;99586.19;;;11.46;86.79
70103;BME280;57470;50.034;15.256;2024-02-04T10:18:04;99582.69;;;11.46;87.30
70103;BME280;57470;50.034;15.256;2024-02-04T10:20:30;99573.31;;;11.27;86.79
70103;BME280;57470;50.034;15.256;2024-02-04T10:22:56;99577.47;;;11.32;87.12
70103;BME280;57470;50.034;15.256;2024-02-04T10:25:22;99573.84;;;11.33;86.78
70103;BME280;57470;50.034;15.256;2024-02-04T10:27:48;99559.78;;;11.43;86.70
70103;BME280;57470;50.034;15.256;2024-02-04T10:30:13;99570.44;;;11.43;87.17
70103;BME280;57470;50.034;15.256;2024-02-04T10:32:39;99551.06;;;11.54;86.89
70103;BME280;57470;50.034;15.256;2024-02-04T10:35:07;99558.69;;;11.58;86.52
70103;BME280;57470;50.034;15.256;2024-02-04T10:37:34;99558.16;;;11.66;85.82
70103;BME280;57470;50.034;15.256;2024-02-04T10:39:59;99576.31;;;11.36;86.98
70103;BME280;57470;50.034;15.256;2024-02-04T10:42:26;99561.25;;;11.47;86.92
70103;BME280;57470;50.034;15.256;2024-02-04T10:44:54;99559.75;;;11.56;86.15
70103;BME280;57470;50.034;15.256;2024-02-04T10:47:23;99561.50;;;11.44;85.71
70103;BME280;57470;50.034;15.256;2024-02-04T10:49:52;99548.50;;;11.52;86.28
70103;BME280;57470;50.034;15.256;2024-02-04T10:52:23;99542.66;;;11.35;86.44
70103;BME280;57470;50.034;15.256;2024-02-04T10:54:52;99544.16;;;11.26;86.35
70103;BME280;57470;50.034;15.256;2024-02-04T10:57:21;99552.00;;;11.27;86.57
70103;BME280;57470;50.034;15.256;2024-02-04T10:59:52;99532.41;;;11.28;86.75
70103;BME280;57470;50.034;15.256;2024-02-04T11:02:19;99542.66;;;11.35;86.25
70103;BME280;57470;50.034;15.256;2024-02-04T11:04:46;99525.59;;;11.37;85.77
70103;BME280;57470;50.034;15.256;2024-02-04T11:07:14;99514.31;;;11.34;86.23
70103;BME280;57470;50.034;15.256;2024-02-04T11:09:40;99508.75;;;11.37;86.00
70103;BME280;57470;50.034;15.256;2024-02-04T11:12:12;99508.16;;;11.20;85.74
70103;BME280;57470;50.034;15.256;2024-02-04T11:14:41;99509.25;;;11.18;86.61
70103;BME280;57470;50.034;15.256;2024-02-04T11:20:35;99511.63;;;11.46;85.41
70103;BME280;57470;50.034;15.256;2024-02-04T11:23:17;99529.94;;;11.51;84.84
70103;BME280;57470;50.034;15.256;2024-02-04T11:25:48;99520.56;;;11.45;85.15
70103;BME280;57470;50.034;15.256;2024-02-04T11:28:15;99498.53;;;11.43;84.39
70103;BME280;57470;50.034;15.256;2024-02-04T11:30:42;99512.97;;;11.64;84.66
70103;BME280;57470;50.034;15.256;2024-02-04T11:33:10;99518.94;;;11.68;84.61
70103;BME280;57470;50.034;15.256;2024-02-04T11:35:36;99508.94;;;11.59;84.56
70103;BME280;57470;50.034;15.256;2024-02-04T11:38:05;99506.47;;;11.56;85.32
70103;BME280;57470;50.034;15.256;2024-02-04T11:40:33;99490.59;;;11.54;85.06
70103;BME280;57470;50.034;15.256;2024-02-04T11:43:23;99500.84;;;11.48;85.19
70103;BME280;57470;50.034;15.256;2024-02-04T11:45:48;99496.84;;;11.29;85.19
70103;BME280;57470;50.034;15.256;2024-02-04T11:48:16;99506.84;;;11.39;85.04
70103;BME280;57470;50.034;15.256;2024-02-04T11:50:42;99491.88;;;11.25;85.50
70103;BME280;57470;50.034;15.256;2024-02-04T11:53:09;99483.22;;;11.34;85.19
70103;BME280;57470;50.034;15.256;2024-02-04T11:55:36;99484.31;;;11.55;84.84
70103;BME280;57470;50.034;15.256;2024-02-04T11:58:01;99481.31;;;11.36;85.17
70103;BME280;57470;50.034;15.256;2024-02-04T12:00:28;99470.91;;;11.08;86.63
70103;BME280;57470;50.034;15.256;2024-02-04T12:03:04;99480.06;;;11.16;86.03
70103;BME280;57470;50.034;15.256;2024-02-04T12:05:36;99464.50;;;11.10;86.06
70103;BME280;57470;50.034;15.256;2024-02-04T12:08:04;99476.75;;;11.13;86.26
70103;BME280;57470;50.034;15.256;2024-02-04T12:10:31;99463.47;;;10.87;87.12
70103;BME280;57470;50.034;15.256;2024-02-04T12:12:59;99464.94;;;11.17;86.41
70103;BME280;57470;50.034;15.256;2024-02-04T12:15:25;99451.31;;;10.96;86.83
70103;BME280;57470;50.034;15.256;2024-02-04T12:17:51;99443.66;;;10.91;86.09
70103;BME280;57470;50.034;15.256;2024-02-04T12:20:16;99452.78;;;11.13;85.89
70103;BME280;57470;50.034;15.256;2024-02-04T12:22:42;99456.06;;;11.29;85.77
70103;BME280;57470;50.034;15.256;2024-02-04T12:25:08;99450.78;;;11.04;85.63
70103;BME280;57470;50.034;15.256;2024-02-04T12:27:34;99467.34;;;11.33;85.63
70103;BME280;57470;50.034;15.256;2024-02-04T12:29:59;99455.13;;;11.17;85.60
70103;BME280;57470;50.034;15.256;2024-02-04T12:32:25;99457.91;;;11.03;86.44
70103;BME280;57470;50.034;15.256;2024-02-04T12:34:51;99433.41;;;11.11;85.47
70103;BME280;57470;50.034;15.256;2024-02-04T12:37:19;99438.00;;;11.09;85.64
70103;BME280;57470;50.034;15.256;2024-02-04T12:39:44;99432.91;;;11.06;85.74
70103;BME280;57470;50.034;15.256;2024-02-04T12:42:10;99432.78;;;11.07;85.53
70103;BME280;57470;50.034;15.256;2024-02-04T12:44:36;99428.09;;;11.11;84.82
70103;BME280;57470;50.034;15.256;2024-02-04T12:47:01;99421.91;;;11.10;84.87
70103;BME280;57470;50.034;15.256;2024-02-04T12:49:27;99411.69;;;11.17;84.89
70103;BME280;57470;50.034;15.256;2024-02-04T12:52:03;99398.25;;;11.18;85.41
70103;BME280;57470;50.034;15.256;2024-02-04T12:54:29;99394.03;;;11.16;84.50
70103;BME280;57470;50.034;15.256;2024-02-04T12:56:54;99389.91;;;11.36;84.22
70103;BME280;57470;50.034;15.256;2024-02-04T12:59:31;99388.78;;;11.27;84.53